sensor_id;sensor_type;location;lat;lon;timestamp;P1;durP1;ratioP1;P2;durP2;ratioP2
3865;SDS011;1948;53.250;10.412;2022-07-24T00:01:12;4.33;;;3.77;;
3865;SDS011;1948;53.250;10.412;2022-07-24T00:03:39;3.60;;;3.43;;
3865;SDS011;1948;53.250;10.412;2022-07-24T00:06:07;3.53;;;3.43;;
3865;SDS011;1948;53.250;10.412;2022-07-24T00:08:35;13.07;;;4.00;;
3865;SDS011;1948;53.250;10.412;2022-07-24T00:11:07;7.60;;;3.87;;
3865;SDS011;1948;53.250;10.412;2022-07-24T00:13:34;3.90;;;3.50;;
3865;SDS011;1948;53.250;10.412;2022-07-24T00:16:03;3.77;;;3.47;;
3865;SDS011;1948;53.250;10.412;2022-07-24T00:18:31;3.77;;;3.47;;
3865;SDS011;1948;53.250;10.412;2022-07-24T00:20:58;3.40;;;3.20;;
3865;SDS011;1948;53.250;10.412;2022-07-24T00:23:27;7.20;;;3.40;;
3865;SDS011;1948;53.250;10.412;2022-07-24T00:25:55;3.50;;;3.13;;
3865;SDS011;1948;53.250;10.412;2022-07-24T00:28:25;7.40;;;4.17;;
3865;SDS011;1948;53.250;10.412;2022-07-24T00:30:54;4.33;;;3.80;;
3865;SDS011;1948;53.250;10.412;2022-07-24T00:33:22;4.43;;;3.80;;
3865;SDS011;1948;53.250;10.412;2022-07-24T00:35:51;3.60;;;3.30;;
3865;SDS011;1948;53.250;10.412;2022-07-24T00:38:18;4.00;;;3.80;;
3865;SDS011;1948;53.250;10.412;2022-07-24T00:40:45;4.50;;;3.50;;
3865;SDS011;1948;53.250;10.412;2022-07-24T00:43:15;3.63;;;3.43;;
3865;SDS011;1948;53.250;10.412;2022-07-24T00:45:43;3.47;;;3.00;;
3865;SDS011;1948;53.250;10.412;2022-07-24T00:48:13;4.13;;;3.93;;
3865;SDS011;1948;53.250;10.412;2022-07-24T00:50:40;3.77;;;3.53;;
3865;SDS011;1948;53.250;10.412;2022-07-24T00:53:07;6.10;;;4.60;;
3865;SDS011;1948;53.250;10.412;2022-07-24T00:55:34;4.23;;;4.03;;
3865;SDS011;1948;53.250;10.412;2022-07-24T00:58:02;5.27;;;3.90;;
3865;SDS011;1948;53.250;10.412;2022-07-24T01:00:32;7.73;;;4.17;;
3865;SDS011;1948;53.250;10.412;2022-07-24T01:02:59;4.13;;;3.10;;
3865;SDS011;1948;53.250;10.412;2022-07-24T01:05:26;4.00;;;3.83;;
3865;SDS011;1948;53.250;10.412;2022-07-24T01:07:53;8.73;;;3.70;;
3865;SDS011;1948;53.250;10.412;2022-07-24T01:10:20;3.20;;;3.10;;
3865;SDS011;1948;53.250;10.412;2022-07-24T01:12:50;3.87;;;3.40;;
3865;SDS011;1948;53.250;10.412;2022-07-24T01:15:17;6.33;;;3.30;;
3865;SDS011;1948;53.250;10.412;2022-07-24T01:17:43;3.77;;;3.50;;
3865;SDS011;1948;53.250;10.412;2022-07-24T01:20:10;3.50;;;3.20;;
3865;SDS011;1948;53.250;10.412;2022-07-24T01:22:38;4.93;;;3.60;;
3865;SDS011;1948;53.250;10.412;2022-07-24T01:25:05;3.30;;;2.93;;
3865;SDS011;1948;53.250;10.412;2022-07-24T01:27:33;6.80;;;4.20;;
3865;SDS011;1948;53.250;10.412;2022-07-24T01:30:00;5.13;;;4.67;;
3865;SDS011;1948;53.250;10.412;2022-07-24T01:32:29;4.77;;;4.30;;
3865;SDS011;1948;53.250;10.412;2022-07-24T01:34:56;3.50;;;3.40;;
3865;SDS011;1948;53.250;10.412;2022-07-24T01:37:23;5.50;;;3.60;;
3865;SDS011;1948;53.250;10.412;2022-07-24T01:39:50;3.87;;;3.73;;
3865;SDS011;1948;53.250;10.412;2022-07-24T01:42:20;4.13;;;3.97;;
3865;SDS011;1948;53.250;10.412;2022-07-24T01:44:47;3.90;;;3.60;;
3865;SDS011;1948;53.250;10.412;2022-07-24T01:47:14;3.27;;;3.10;;
3865;SDS011;1948;53.250;10.412;2022-07-24T01:49:44;3.17;;;3.17;;
3865;SDS011;1948;53.250;10.412;2022-07-24T01:52:13;3.10;;;3.10;;
3865;SDS011;1948;53.250;10.412;2022-07-24T01:54:43;11.90;;;4.63;;
3865;SDS011;1948;53.250;10.412;2022-07-24T01:57:10;3.97;;;3.70;;
3865;SDS011;1948;53.250;10.412;2022-07-24T01:59:45;26.43;;;3.50;;
3865;SDS011;1948;53.250;10.412;2022-07-24T02:02:15;3.97;;;3.70;;
3865;SDS011;1948;53.250;10.412;2022-07-24T02:04:42;6.73;;;3.37;;
3865;SDS011;1948;53.250;10.412;2022-07-24T02:07:09;6.10;;;3.50;;
3865;SDS011;1948;53.250;10.412;2022-07-24T02:09:36;3.97;;;3.67;;
3865;SDS011;1948;53.250;10.412;2022-07-24T02:12:03;3.43;;;3.23;;
3865;SDS011;1948;53.250;10.412;2022-07-24T02:14:30;8.10;;;3.20;;
3865;SDS011;1948;53.250;10.412;2022-07-24T02:16:58;9.83;;;3.87;;
3865;SDS011;1948;53.250;10.412;2022-07-24T02:19:28;4.43;;;3.90;;
3865;SDS011;1948;53.250;10.412;2022-07-24T02:21:57;4.00;;;3.77;;
3865;SDS011;1948;53.250;10.412;2022-07-24T02:24:24;3.77;;;3.67;;
3865;SDS011;1948;53.250;10.412;2022-07-24T02:26:53;5.30;;;4.10;;
3865;SDS011;1948;53.250;10.412;2022-07-24T02:29:31;3.93;;;3.70;;
3865;SDS011;1948;53.250;10.412;2022-07-24T02:32:00;4.23;;;4.07;;
3865;SDS011;1948;53.250;10.412;2022-07-24T02:34:33;3.87;;;3.63;;
3865;SDS011;1948;53.250;10.412;2022-07-24T02:37:04;4.77;;;3.90;;
3865;SDS011;1948;53.250;10.412;2022-07-24T02:39:31;3.50;;;3.40;;
3865;SDS011;1948;53.250;10.412;2022-07-24T02:42:00;3.67;;;3.33;;
3865;SDS011;1948;53.250;10.412;2022-07-24T02:44:27;3.67;;;3.37;;
3865;SDS011;1948;53.250;10.412;2022-07-24T02:46:54;4.10;;;3.70;;
3865;SDS011;1948;53.250;10.412;2022-07-24T02:49:21;4.20;;;3.80;;
3865;SDS011;1948;53.250;10.412;2022-07-24T02:51:51;4.20;;;3.37;;
3865;SDS011;1948;53.250;10.412;2022-07-24T02:54:18;9.67;;;3.63;;
3865;SDS011;1948;53.250;10.412;2022-07-24T02:56:45;3.97;;;3.70;;
3865;SDS011;1948;53.250;10.412;2022-07-24T02:59:16;3.67;;;3.40;;
3865;SDS011;1948;53.250;10.412;2022-07-24T03:01:45;5.23;;;3.80;;
3865;SDS011;1948;53.250;10.412;2022-07-24T03:04:12;4.93;;;3.40;;
3865;SDS011;1948;53.250;10.412;2022-07-24T03:06:40;3.60;;;3.50;;
3865;SDS011;1948;53.250;10.412;2022-07-24T03:09:07;3.97;;;3.70;;
3865;SDS011;1948;53.250;10.412;2022-07-24T03:11:36;4.57;;;4.17;;
3865;SDS011;1948;53.250;10.412;2022-07-24T03:14:03;4.17;;;3.87;;
3865;SDS011;1948;53.250;10.412;2022-07-24T03:16:30;3.73;;;3.53;;
3865;SDS011;1948;53.250;10.412;2022-07-24T03:19:03;4.13;;;3.90;;
3865;SDS011;1948;53.250;10.412;2022-07-24T03:21:33;4.20;;;4.00;;
3865;SDS011;1948;53.250;10.412;2022-07-24T03:24:13;11.27;;;4.10;;
3865;SDS011;1948;53.250;10.412;2022-07-24T03:26:41;6.13;;;3.60;;
3865;SDS011;1948;53.250;10.412;2022-07-24T03:29:08;6.10;;;4.10;;
3865;SDS011;1948;53.250;10.412;2022-07-24T03:31:38;12.57;;;4.10;;
3865;SDS011;1948;53.250;10.412;2022-07-24T03:34:09;4.30;;;3.37;;
3865;SDS011;1948;53.250;10.412;2022-07-24T03:36:37;4.70;;;4.30;;
3865;SDS011;1948;53.250;10.412;2022-07-24T03:39:04;4.27;;;4.00;;
3865;SDS011;1948;53.250;10.412;2022-07-24T03:41:36;11.30;;;3.90;;
3865;SDS011;1948;53.250;10.412;2022-07-24T03:44:03;4.60;;;4.20;;
3865;SDS011;1948;53.250;10.412;2022-07-24T03:46:32;4.33;;;3.93;;
3865;SDS011;1948;53.250;10.412;2022-07-24T03:48:59;4.67;;;4.40;;
3865;SDS011;1948;53.250;10.412;2022-07-24T03:51:30;5.70;;;4.40;;
3865;SDS011;1948;53.250;10.412;2022-07-24T03:54:03;4.93;;;4.47;;
3865;SDS011;1948;53.250;10.412;2022-07-24T03:56:33;4.07;;;3.73;;
3865;SDS011;1948;53.250;10.412;2022-07-24T03:59:00;3.87;;;3.57;;
3865;SDS011;1948;53.250;10.412;2022-07-24T04:01:27;6.30;;;3.87;;
3865;SDS011;1948;53.250;10.412;2022-07-24T04:03:57;4.20;;;3.80;;
3865;SDS011;1948;53.250;10.412;2022-07-24T04:06:31;3.57;;;3.47;;
3865;SDS011;1948;53.250;10.412;2022-07-24T04:08:59;3.70;;;3.50;;
3865;SDS011;1948;53.250;10.412;2022-07-24T04:11:28;7.50;;;4.07;;
3865;SDS011;1948;53.250;10.412;2022-07-24T04:13:55;5.80;;;4.00;;
3865;SDS011;1948;53.250;10.412;2022-07-24T04:16:22;3.80;;;3.60;;
3865;SDS011;1948;53.250;10.412;2022-07-24T04:18:49;4.40;;;4.07;;
3865;SDS011;1948;53.250;10.412;2022-07-24T04:21:16;3.87;;;3.57;;
3865;SDS011;1948;53.250;10.412;2022-07-24T04:23:44;3.60;;;3.50;;
3865;SDS011;1948;53.250;10.412;2022-07-24T04:26:11;5.07;;;4.10;;
3865;SDS011;1948;53.250;10.412;2022-07-24T04:28:40;3.90;;;3.70;;
3865;SDS011;1948;53.250;10.412;2022-07-24T04:31:08;3.80;;;3.60;;
3865;SDS011;1948;53.250;10.412;2022-07-24T04:33:35;10.40;;;4.23;;
3865;SDS011;1948;53.250;10.412;2022-07-24T04:36:03;6.40;;;4.60;;
3865;SDS011;1948;53.250;10.412;2022-07-24T04:38:32;3.80;;;3.70;;
3865;SDS011;1948;53.250;10.412;2022-07-24T04:41:04;6.00;;;3.97;;
3865;SDS011;1948;53.250;10.412;2022-07-24T04:43:31;3.90;;;3.70;;
3865;SDS011;1948;53.250;10.412;2022-07-24T04:46:00;4.20;;;3.90;;
3865;SDS011;1948;53.250;10.412;2022-07-24T04:48:27;4.73;;;4.33;;
3865;SDS011;1948;53.250;10.412;2022-07-24T04:50:54;4.73;;;4.33;;
3865;SDS011;1948;53.250;10.412;2022-07-24T04:53:21;5.60;;;3.80;;
3865;SDS011;1948;53.250;10.412;2022-07-24T04:55:49;4.20;;;4.10;;
3865;SDS011;1948;53.250;10.412;2022-07-24T04:58:16;4.97;;;3.97;;
3865;SDS011;1948;53.250;10.412;2022-07-24T05:00:45;4.90;;;3.73;;
3865;SDS011;1948;53.250;10.412;2022-07-24T05:03:12;6.20;;;4.47;;
3865;SDS011;1948;53.250;10.412;2022-07-24T05:05:39;4.40;;;4.30;;
3865;SDS011;1948;53.250;10.412;2022-07-24T05:08:06;4.80;;;4.70;;
3865;SDS011;1948;53.250;10.412;2022-07-24T05:10:37;6.10;;;5.00;;
3865;SDS011;1948;53.250;10.412;2022-07-24T05:13:08;4.53;;;4.20;;
3865;SDS011;1948;53.250;10.412;2022-07-24T05:15:37;5.73;;;4.70;;
3865;SDS011;1948;53.250;10.412;2022-07-24T05:18:05;4.70;;;4.50;;
3865;SDS011;1948;53.250;10.412;2022-07-24T05:20:34;4.67;;;4.20;;
3865;SDS011;1948;53.250;10.412;2022-07-24T05:23:04;4.13;;;3.77;;
3865;SDS011;1948;53.250;10.412;2022-07-24T05:25:31;4.73;;;3.73;;
3865;SDS011;1948;53.250;10.412;2022-07-24T05:28:00;5.40;;;3.50;;
3865;SDS011;1948;53.250;10.412;2022-07-24T05:30:27;4.20;;;4.00;;
3865;SDS011;1948;53.250;10.412;2022-07-24T05:32:59;4.43;;;3.90;;
3865;SDS011;1948;53.250;10.412;2022-07-24T05:35:28;3.87;;;3.53;;
3865;SDS011;1948;53.250;10.412;2022-07-24T05:37:55;7.30;;;3.70;;
3865;SDS011;1948;53.250;10.412;2022-07-24T05:40:22;3.73;;;3.50;;
3865;SDS011;1948;53.250;10.412;2022-07-24T05:42:51;3.90;;;3.33;;
3865;SDS011;1948;53.250;10.412;2022-07-24T05:45:20;4.30;;;3.93;;
3865;SDS011;1948;53.250;10.412;2022-07-24T05:47:50;4.70;;;3.93;;
3865;SDS011;1948;53.250;10.412;2022-07-24T05:50:21;6.37;;;3.43;;
3865;SDS011;1948;53.250;10.412;2022-07-24T05:52:48;3.90;;;3.03;;
3865;SDS011;1948;53.250;10.412;2022-07-24T05:55:17;2.93;;;2.70;;
3865;SDS011;1948;53.250;10.412;2022-07-24T05:57:47;3.43;;;3.13;;
3865;SDS011;1948;53.250;10.412;2022-07-24T06:00:16;9.40;;;3.20;;
3865;SDS011;1948;53.250;10.412;2022-07-24T06:02:49;5.07;;;3.60;;
3865;SDS011;1948;53.250;10.412;2022-07-24T06:05:16;5.10;;;2.70;;
3865;SDS011;1948;53.250;10.412;2022-07-24T06:07:46;5.30;;;3.30;;
3865;SDS011;1948;53.250;10.412;2022-07-24T06:10:13;6.13;;;3.30;;
3865;SDS011;1948;53.250;10.412;2022-07-24T06:12:41;5.37;;;3.30;;
3865;SDS011;1948;53.250;10.412;2022-07-24T06:15:09;6.60;;;3.33;;
3865;SDS011;1948;53.250;10.412;2022-07-24T06:17:37;5.10;;;2.90;;
3865;SDS011;1948;53.250;10.412;2022-07-24T06:20:04;8.60;;;2.67;;
3865;SDS011;1948;53.250;10.412;2022-07-24T06:22:33;3.53;;;2.63;;
3865;SDS011;1948;53.250;10.412;2022-07-24T06:25:03;7.03;;;2.23;;
3865;SDS011;1948;53.250;10.412;2022-07-24T06:27:30;2.60;;;2.40;;
3865;SDS011;1948;53.250;10.412;2022-07-24T06:29:57;2.73;;;2.37;;
3865;SDS011;1948;53.250;10.412;2022-07-24T06:32:24;2.83;;;2.63;;
3865;SDS011;1948;53.250;10.412;2022-07-24T06:34:54;2.67;;;2.47;;
3865;SDS011;1948;53.250;10.412;2022-07-24T06:37:25;3.67;;;2.70;;
3865;SDS011;1948;53.250;10.412;2022-07-24T06:39:51;2.70;;;2.47;;
3865;SDS011;1948;53.250;10.412;2022-07-24T06:42:18;4.97;;;2.30;;
3865;SDS011;1948;53.250;10.412;2022-07-24T06:44:48;7.37;;;2.20;;
3865;SDS011;1948;53.250;10.412;2022-07-24T06:47:17;2.37;;;2.27;;
3865;SDS011;1948;53.250;10.412;2022-07-24T06:49:44;2.90;;;2.20;;
3865;SDS011;1948;53.250;10.412;2022-07-24T06:52:23;2.73;;;2.30;;
3865;SDS011;1948;53.250;10.412;2022-07-24T06:54:52;2.30;;;2.20;;
3865;SDS011;1948;53.250;10.412;2022-07-24T06:57:21;2.03;;;1.83;;
3865;SDS011;1948;53.250;10.412;2022-07-24T06:59:48;1.73;;;1.63;;
3865;SDS011;1948;53.250;10.412;2022-07-24T07:02:18;6.37;;;2.10;;
3865;SDS011;1948;53.250;10.412;2022-07-24T07:04:48;10.50;;;2.30;;
3865;SDS011;1948;53.250;10.412;2022-07-24T07:07:16;6.67;;;1.93;;
3865;SDS011;1948;53.250;10.412;2022-07-24T07:09:46;5.83;;;2.00;;
3865;SDS011;1948;53.250;10.412;2022-07-24T07:12:13;1.80;;;1.70;;
3865;SDS011;1948;53.250;10.412;2022-07-24T07:14:40;3.90;;;1.70;;
3865;SDS011;1948;53.250;10.412;2022-07-24T07:17:09;3.83;;;2.03;;
3865;SDS011;1948;53.250;10.412;2022-07-24T07:19:41;2.13;;;1.90;;
3865;SDS011;1948;53.250;10.412;2022-07-24T07:22:09;5.53;;;1.70;;
3865;SDS011;1948;53.250;10.412;2022-07-24T07:24:37;4.30;;;1.90;;
3865;SDS011;1948;53.250;10.412;2022-07-24T07:27:11;6.23;;;2.10;;
3865;SDS011;1948;53.250;10.412;2022-07-24T07:29:40;2.43;;;1.73;;
3865;SDS011;1948;53.250;10.412;2022-07-24T07:32:07;3.33;;;1.90;;
3865;SDS011;1948;53.250;10.412;2022-07-24T07:34:37;3.50;;;1.77;;
3865;SDS011;1948;53.250;10.412;2022-07-24T07:37:08;2.53;;;2.33;;
3865;SDS011;1948;53.250;10.412;2022-07-24T07:39:35;1.90;;;1.90;;
3865;SDS011;1948;53.250;10.412;2022-07-24T07:42:02;2.17;;;1.80;;
3865;SDS011;1948;53.250;10.412;2022-07-24T07:44:30;1.70;;;1.60;;
3865;SDS011;1948;53.250;10.412;2022-07-24T07:46:59;3.87;;;1.60;;
3865;SDS011;1948;53.250;10.412;2022-07-24T07:49:29;5.03;;;1.67;;
3865;SDS011;1948;53.250;10.412;2022-07-24T07:52:01;1.87;;;1.70;;
3865;SDS011;1948;53.250;10.412;2022-07-24T07:54:29;2.97;;;1.50;;
3865;SDS011;1948;53.250;10.412;2022-07-24T07:56:58;1.63;;;1.30;;
3865;SDS011;1948;53.250;10.412;2022-07-24T07:59:27;4.03;;;1.50;;
3865;SDS011;1948;53.250;10.412;2022-07-24T08:01:57;9.83;;;1.80;;
3865;SDS011;1948;53.250;10.412;2022-07-24T08:04:26;1.90;;;1.90;;
3865;SDS011;1948;53.250;10.412;2022-07-24T08:06:57;3.87;;;2.27;;
3865;SDS011;1948;53.250;10.412;2022-07-24T08:09:24;1.80;;;1.70;;
3865;SDS011;1948;53.250;10.412;2022-07-24T08:11:51;1.70;;;1.60;;
3865;SDS011;1948;53.250;10.412;2022-07-24T08:14:22;2.30;;;1.90;;
3865;SDS011;1948;53.250;10.412;2022-07-24T08:16:51;1.97;;;1.90;;
3865;SDS011;1948;53.250;10.412;2022-07-24T08:19:20;3.13;;;2.07;;
3865;SDS011;1948;53.250;10.412;2022-07-24T08:21:47;2.33;;;2.13;;
3865;SDS011;1948;53.250;10.412;2022-07-24T08:24:14;1.90;;;1.80;;
3865;SDS011;1948;53.250;10.412;2022-07-24T08:26:47;2.00;;;1.90;;
3865;SDS011;1948;53.250;10.412;2022-07-24T08:29:15;1.73;;;1.73;;
3865;SDS011;1948;53.250;10.412;2022-07-24T08:31:43;2.30;;;2.20;;
3865;SDS011;1948;53.250;10.412;2022-07-24T08:34:10;2.20;;;2.00;;
3865;SDS011;1948;53.250;10.412;2022-07-24T08:36:37;12.50;;;1.93;;
3865;SDS011;1948;53.250;10.412;2022-07-24T08:39:09;2.30;;;1.93;;
3865;SDS011;1948;53.250;10.412;2022-07-24T08:41:40;6.03;;;2.13;;
3865;SDS011;1948;53.250;10.412;2022-07-24T08:44:13;2.40;;;1.70;;
3865;SDS011;1948;53.250;10.412;2022-07-24T08:46:44;3.40;;;1.80;;
3865;SDS011;1948;53.250;10.412;2022-07-24T08:49:13;2.77;;;2.03;;
3865;SDS011;1948;53.250;10.412;2022-07-24T08:51:44;3.43;;;2.20;;
3865;SDS011;1948;53.250;10.412;2022-07-24T08:54:10;3.80;;;2.20;;
3865;SDS011;1948;53.250;10.412;2022-07-24T08:56:38;2.97;;;1.90;;
3865;SDS011;1948;53.250;10.412;2022-07-24T08:59:21;1.83;;;1.83;;
3865;SDS011;1948;53.250;10.412;2022-07-24T09:01:51;3.57;;;2.20;;
3865;SDS011;1948;53.250;10.412;2022-07-24T09:07:10;2.13;;;2.10;;
3865;SDS011;1948;53.250;10.412;2022-07-24T09:09:39;2.30;;;2.10;;
3865;SDS011;1948;53.250;10.412;2022-07-24T09:12:12;2.17;;;2.17;;
3865;SDS011;1948;53.250;10.412;2022-07-24T09:14:45;3.87;;;2.13;;
3865;SDS011;1948;53.250;10.412;2022-07-24T09:17:15;3.23;;;1.93;;
3865;SDS011;1948;53.250;10.412;2022-07-24T09:22:36;3.70;;;2.20;;
3865;SDS011;1948;53.250;10.412;2022-07-24T09:25:18;6.70;;;2.37;;
3865;SDS011;1948;53.250;10.412;2022-07-24T09:27:51;4.07;;;2.57;;
3865;SDS011;1948;53.250;10.412;2022-07-24T09:30:34;2.60;;;2.50;;
3865;SDS011;1948;53.250;10.412;2022-07-24T09:33:06;2.53;;;2.40;;
3865;SDS011;1948;53.250;10.412;2022-07-24T09:38:23;2.40;;;2.37;;
3865;SDS011;1948;53.250;10.412;2022-07-24T09:40:55;5.20;;;2.10;;
3865;SDS011;1948;53.250;10.412;2022-07-24T09:43:26;3.50;;;2.20;;
3865;SDS011;1948;53.250;10.412;2022-07-24T09:46:02;3.07;;;2.37;;
3865;SDS011;1948;53.250;10.412;2022-07-24T09:48:38;2.90;;;2.73;;
3865;SDS011;1948;53.250;10.412;2022-07-24T09:51:23;2.40;;;2.30;;
3865;SDS011;1948;53.250;10.412;2022-07-24T09:53:56;2.73;;;2.53;;
3865;SDS011;1948;53.250;10.412;2022-07-24T09:56:25;3.20;;;3.10;;
3865;SDS011;1948;53.250;10.412;2022-07-24T09:58:54;4.00;;;2.33;;
3865;SDS011;1948;53.250;10.412;2022-07-24T10:01:25;4.90;;;2.70;;
3865;SDS011;1948;53.250;10.412;2022-07-24T10:03:56;9.90;;;2.90;;
3865;SDS011;1948;53.250;10.412;2022-07-24T10:06:27;2.60;;;2.50;;
3865;SDS011;1948;53.250;10.412;2022-07-24T10:08:54;5.93;;;2.60;;
3865;SDS011;1948;53.250;10.412;2022-07-24T10:11:25;3.10;;;2.90;;
3865;SDS011;1948;53.250;10.412;2022-07-24T10:13:54;2.20;;;2.20;;
3865;SDS011;1948;53.250;10.412;2022-07-24T10:16:28;3.07;;;2.87;;
3865;SDS011;1948;53.250;10.412;2022-07-24T10:19:03;4.50;;;3.00;;
3865;SDS011;1948;53.250;10.412;2022-07-24T10:29:29;4.10;;;3.03;;
3865;SDS011;1948;53.250;10.412;2022-07-24T10:32:02;9.47;;;4.23;;
3865;SDS011;1948;53.250;10.412;2022-07-24T10:34:42;2.90;;;2.80;;
3865;SDS011;1948;53.250;10.412;2022-07-24T10:37:27;3.67;;;3.10;;
3865;SDS011;1948;53.250;10.412;2022-07-24T10:42:29;3.00;;;2.90;;
3865;SDS011;1948;53.250;10.412;2022-07-24T10:45:15;2.93;;;2.83;;
3865;SDS011;1948;53.250;10.412;2022-07-24T10:47:46;3.37;;;3.10;;
3865;SDS011;1948;53.250;10.412;2022-07-24T10:50:13;3.53;;;3.23;;
3865;SDS011;1948;53.250;10.412;2022-07-24T10:52:40;3.10;;;3.00;;
3865;SDS011;1948;53.250;10.412;2022-07-24T11:06:04;3.30;;;3.10;;
3865;SDS011;1948;53.250;10.412;2022-07-24T11:08:37;7.40;;;3.60;;
3865;SDS011;1948;53.250;10.412;2022-07-24T11:11:21;3.43;;;3.13;;
3865;SDS011;1948;53.250;10.412;2022-07-24T11:13:52;3.80;;;3.60;;
3865;SDS011;1948;53.250;10.412;2022-07-24T11:16:29;9.93;;;3.97;;
3865;SDS011;1948;53.250;10.412;2022-07-24T11:21:32;4.10;;;3.90;;
3865;SDS011;1948;53.250;10.412;2022-07-24T11:24:26;4.17;;;3.80;;
3865;SDS011;1948;53.250;10.412;2022-07-24T11:29:23;4.33;;;4.00;;
3865;SDS011;1948;53.250;10.412;2022-07-24T11:31:54;4.07;;;3.63;;
3865;SDS011;1948;53.250;10.412;2022-07-24T11:34:46;4.03;;;3.77;;
3865;SDS011;1948;53.250;10.412;2022-07-24T11:37:19;5.07;;;3.70;;
3865;SDS011;1948;53.250;10.412;2022-07-24T11:39:47;4.33;;;4.00;;
3865;SDS011;1948;53.250;10.412;2022-07-24T11:42:16;3.43;;;3.33;;
3865;SDS011;1948;53.250;10.412;2022-07-24T11:44:51;3.67;;;3.50;;
3865;SDS011;1948;53.250;10.412;2022-07-24T11:47:19;3.87;;;3.70;;
3865;SDS011;1948;53.250;10.412;2022-07-24T11:49:50;3.30;;;3.10;;
3865;SDS011;1948;53.250;10.412;2022-07-24T11:52:29;3.17;;;3.07;;
3865;SDS011;1948;53.250;10.412;2022-07-24T11:57:49;3.90;;;3.03;;
3865;SDS011;1948;53.250;10.412;2022-07-24T12:00:38;3.70;;;3.50;;
3865;SDS011;1948;53.250;10.412;2022-07-24T12:03:07;5.10;;;3.83;;
3865;SDS011;1948;53.250;10.412;2022-07-24T12:05:36;4.23;;;3.93;;
3865;SDS011;1948;53.250;10.412;2022-07-24T12:08:19;3.53;;;3.43;;
3865;SDS011;1948;53.250;10.412;2022-07-24T12:10:56;12.60;;;3.60;;
3865;SDS011;1948;53.250;10.412;2022-07-24T12:13:24;4.43;;;3.80;;
3865;SDS011;1948;53.250;10.412;2022-07-24T12:15:51;3.70;;;3.60;;
3865;SDS011;1948;53.250;10.412;2022-07-24T12:18:18;3.93;;;3.70;;
3865;SDS011;1948;53.250;10.412;2022-07-24T12:20:57;3.90;;;3.70;;
3865;SDS011;1948;53.250;10.412;2022-07-24T12:23:31;4.50;;;4.20;;
3865;SDS011;1948;53.250;10.412;2022-07-24T12:26:01;5.30;;;4.93;;
3865;SDS011;1948;53.250;10.412;2022-07-24T12:28:31;4.57;;;4.27;;
3865;SDS011;1948;53.250;10.412;2022-07-24T12:30:57;6.03;;;4.87;;
3865;SDS011;1948;53.250;10.412;2022-07-24T12:33:36;4.10;;;4.00;;
3865;SDS011;1948;53.250;10.412;2022-07-24T12:36:04;4.87;;;4.17;;
3865;SDS011;1948;53.250;10.412;2022-07-24T12:38:54;4.90;;;4.17;;
3865;SDS011;1948;53.250;10.412;2022-07-24T12:41:26;6.37;;;4.20;;
3865;SDS011;1948;53.250;10.412;2022-07-24T12:46:32;6.07;;;3.97;;
3865;SDS011;1948;53.250;10.412;2022-07-24T12:51:50;13.07;;;3.87;;
3865;SDS011;1948;53.250;10.412;2022-07-24T12:56:59;3.80;;;3.60;;
3865;SDS011;1948;53.250;10.412;2022-07-24T12:59:33;3.43;;;3.27;;
3865;SDS011;1948;53.250;10.412;2022-07-24T13:07:13;3.73;;;3.43;;
3865;SDS011;1948;53.250;10.412;2022-07-24T13:09:44;3.93;;;3.53;;
3865;SDS011;1948;53.250;10.412;2022-07-24T13:12:15;6.93;;;3.30;;
3865;SDS011;1948;53.250;10.412;2022-07-24T13:14:43;3.60;;;3.40;;
3865;SDS011;1948;53.250;10.412;2022-07-24T13:17:11;4.13;;;3.70;;
3865;SDS011;1948;53.250;10.412;2022-07-24T13:19:43;3.53;;;3.37;;
3865;SDS011;1948;53.250;10.412;2022-07-24T13:22:15;3.13;;;2.93;;
3865;SDS011;1948;53.250;10.412;2022-07-24T13:24:44;5.50;;;3.40;;
3865;SDS011;1948;53.250;10.412;2022-07-24T13:27:16;4.10;;;3.90;;
3865;SDS011;1948;53.250;10.412;2022-07-24T13:29:44;3.53;;;3.43;;
3865;SDS011;1948;53.250;10.412;2022-07-24T13:32:11;3.50;;;3.03;;
3865;SDS011;1948;53.250;10.412;2022-07-24T13:34:47;3.43;;;3.33;;
3865;SDS011;1948;53.250;10.412;2022-07-24T13:37:14;3.87;;;3.30;;
3865;SDS011;1948;53.250;10.412;2022-07-24T13:39:44;4.97;;;3.63;;
3865;SDS011;1948;53.250;10.412;2022-07-24T13:42:11;5.97;;;3.50;;
3865;SDS011;1948;53.250;10.412;2022-07-24T13:44:38;3.30;;;3.10;;
3865;SDS011;1948;53.250;10.412;2022-07-24T13:47:05;3.23;;;3.13;;
3865;SDS011;1948;53.250;10.412;2022-07-24T13:49:33;3.60;;;3.50;;
3865;SDS011;1948;53.250;10.412;2022-07-24T13:52:02;4.00;;;3.30;;
3865;SDS011;1948;53.250;10.412;2022-07-24T13:54:37;3.27;;;3.27;;
3865;SDS011;1948;53.250;10.412;2022-07-24T13:57:04;3.80;;;3.60;;
3865;SDS011;1948;53.250;10.412;2022-07-24T13:59:34;3.83;;;3.73;;
3865;SDS011;1948;53.250;10.412;2022-07-24T14:02:01;3.40;;;3.20;;
3865;SDS011;1948;53.250;10.412;2022-07-24T14:04:31;4.50;;;4.07;;
3865;SDS011;1948;53.250;10.412;2022-07-24T14:06:59;4.03;;;3.93;;
3865;SDS011;1948;53.250;10.412;2022-07-24T14:09:30;7.73;;;3.40;;
3865;SDS011;1948;53.250;10.412;2022-07-24T14:11:57;5.10;;;4.80;;
3865;SDS011;1948;53.250;10.412;2022-07-24T14:14:26;3.97;;;3.77;;
3865;SDS011;1948;53.250;10.412;2022-07-24T14:16:55;11.20;;;4.00;;
3865;SDS011;1948;53.250;10.412;2022-07-24T14:19:22;4.00;;;3.83;;
3865;SDS011;1948;53.250;10.412;2022-07-24T14:21:52;8.53;;;3.77;;
3865;SDS011;1948;53.250;10.412;2022-07-24T14:24:19;3.93;;;3.70;;
3865;SDS011;1948;53.250;10.412;2022-07-24T14:26:50;4.57;;;4.27;;
3865;SDS011;1948;53.250;10.412;2022-07-24T14:29:20;7.40;;;4.00;;
3865;SDS011;1948;53.250;10.412;2022-07-24T14:31:51;3.83;;;3.53;;
3865;SDS011;1948;53.250;10.412;2022-07-24T14:34:18;4.07;;;3.87;;
3865;SDS011;1948;53.250;10.412;2022-07-24T14:36:48;6.00;;;3.27;;
3865;SDS011;1948;53.250;10.412;2022-07-24T14:39:17;3.90;;;3.67;;
3865;SDS011;1948;53.250;10.412;2022-07-24T14:41:45;4.17;;;3.87;;
3865;SDS011;1948;53.250;10.412;2022-07-24T14:44:14;3.83;;;3.60;;
3865;SDS011;1948;53.250;10.412;2022-07-24T14:46:42;9.07;;;3.80;;
3865;SDS011;1948;53.250;10.412;2022-07-24T14:49:09;3.97;;;3.67;;
3865;SDS011;1948;53.250;10.412;2022-07-24T14:51:37;3.97;;;3.50;;
3865;SDS011;1948;53.250;10.412;2022-07-24T14:54:04;3.93;;;3.63;;
3865;SDS011;1948;53.250;10.412;2022-07-24T14:56:34;3.90;;;3.80;;
3865;SDS011;1948;53.250;10.412;2022-07-24T14:59:02;4.33;;;3.90;;
3865;SDS011;1948;53.250;10.412;2022-07-24T15:01:30;9.00;;;3.80;;
3865;SDS011;1948;53.250;10.412;2022-07-24T15:04:03;4.40;;;4.20;;
3865;SDS011;1948;53.250;10.412;2022-07-24T15:06:33;4.00;;;3.70;;
3865;SDS011;1948;53.250;10.412;2022-07-24T15:09:01;4.40;;;4.30;;
3865;SDS011;1948;53.250;10.412;2022-07-24T15:11:30;3.57;;;3.40;;
3865;SDS011;1948;53.250;10.412;2022-07-24T15:13:57;3.97;;;3.97;;
3865;SDS011;1948;53.250;10.412;2022-07-24T15:16:27;6.00;;;3.60;;
3865;SDS011;1948;53.250;10.412;2022-07-24T15:18:57;4.70;;;3.77;;
3865;SDS011;1948;53.250;10.412;2022-07-24T15:21:31;4.83;;;4.00;;
3865;SDS011;1948;53.250;10.412;2022-07-24T15:24:02;4.03;;;3.83;;
3865;SDS011;1948;53.250;10.412;2022-07-24T15:26:31;4.20;;;3.80;;
3865;SDS011;1948;53.250;10.412;2022-07-24T15:28:59;4.27;;;3.97;;
3865;SDS011;1948;53.250;10.412;2022-07-24T15:31:29;3.50;;;3.30;;
3865;SDS011;1948;53.250;10.412;2022-07-24T15:33:56;3.80;;;3.70;;
3865;SDS011;1948;53.250;10.412;2022-07-24T15:36:23;9.00;;;3.83;;
3865;SDS011;1948;53.250;10.412;2022-07-24T15:38:51;4.47;;;4.37;;
3865;SDS011;1948;53.250;10.412;2022-07-24T15:41:19;4.80;;;3.77;;
3865;SDS011;1948;53.250;10.412;2022-07-24T15:43:46;3.73;;;3.60;;
3865;SDS011;1948;53.250;10.412;2022-07-24T15:46:13;4.40;;;4.10;;
3865;SDS011;1948;53.250;10.412;2022-07-24T15:48:42;4.20;;;4.10;;
3865;SDS011;1948;53.250;10.412;2022-07-24T15:51:09;4.00;;;3.80;;
3865;SDS011;1948;53.250;10.412;2022-07-24T15:53:36;10.70;;;4.40;;
3865;SDS011;1948;53.250;10.412;2022-07-24T15:56:03;4.03;;;3.93;;
3865;SDS011;1948;53.250;10.412;2022-07-24T15:58:31;3.80;;;3.60;;
3865;SDS011;1948;53.250;10.412;2022-07-24T16:00:58;4.13;;;3.93;;
3865;SDS011;1948;53.250;10.412;2022-07-24T16:03:25;4.10;;;4.00;;
3865;SDS011;1948;53.250;10.412;2022-07-24T16:05:52;3.60;;;3.40;;